createdAt,value
2018-11-13T00:00:11.690Z,12.87
2018-11-13T00:02:38.867Z,13.63
2018-11-13T00:05:06.010Z,14.30
2018-11-13T00:07:33.170Z,14.30
2018-11-13T00:10:00.314Z,15.20
2018-11-13T00:12:27.486Z,14.80
2018-11-13T00:14:54.645Z,15.30
2018-11-13T00:17:21.801Z,14.27
2018-11-13T00:19:48.967Z,14.10
2018-11-13T00:22:16.118Z,14.10
2018-11-13T00:24:43.290Z,13.97
2018-11-13T00:27:10.458Z,13.70
2018-11-13T00:29:37.605Z,12.80
2018-11-13T00:32:04.918Z,12.27
2018-11-13T00:34:32.079Z,13.27
2018-11-13T00:36:59.238Z,14.00
2018-11-13T00:39:26.423Z,14.03
2018-11-13T00:41:53.578Z,14.00
2018-11-13T00:44:20.726Z,12.80
2018-11-13T00:46:47.886Z,14.00
2018-11-13T00:49:15.034Z,13.77
2018-11-13T00:51:42.211Z,14.13
2018-11-13T00:54:09.381Z,13.67
2018-11-13T00:56:36.530Z,13.60
2018-11-13T00:59:03.722Z,14.10
2018-11-13T01:01:30.898Z,15.47
2018-11-13T01:03:58.050Z,15.70
2018-11-13T01:06:25.227Z,16.40
2018-11-13T01:08:52.386Z,16.70
2018-11-13T01:11:19.545Z,15.83
2018-11-13T01:13:46.693Z,18.30
2018-11-13T01:16:13.847Z,17.60
2018-11-13T01:18:40.986Z,16.80
2018-11-13T01:21:08.141Z,18.27
2018-11-13T01:23:35.302Z,17.60
2018-11-13T01:26:02.488Z,16.10
2018-11-13T01:28:29.640Z,17.03
2018-11-13T01:30:56.835Z,16.50
2018-11-13T01:33:24.007Z,17.90
2018-11-13T01:35:51.166Z,16.70
2018-11-13T01:38:18.326Z,14.97
2018-11-13T01:40:45.482Z,15.67
2018-11-13T01:43:12.630Z,16.37
2018-11-13T01:45:39.774Z,14.70
2018-11-13T01:48:07.192Z,14.83
2018-11-13T01:50:34.115Z,14.77
2018-11-13T01:53:01.278Z,14.03
2018-11-13T01:55:28.437Z,13.17
2018-11-13T01:57:55.587Z,13.50
2018-11-13T02:00:23.581Z,14.30
2018-11-13T02:02:51.986Z,13.50
2018-11-13T02:05:20.325Z,13.43
2018-11-13T02:07:47.545Z,13.30
2018-11-13T02:10:15.040Z,13.43
2018-11-13T02:12:42.283Z,13.53
2018-11-13T02:15:09.638Z,12.70
2018-11-13T02:17:36.902Z,11.73
2018-11-13T02:20:05.026Z,11.37
2018-11-13T02:22:32.188Z,12.10
2018-11-13T02:24:59.346Z,12.20
2018-11-13T02:27:27.597Z,11.93
2018-11-13T02:29:54.742Z,10.70
2018-11-13T02:32:21.903Z,11.80
2018-11-13T02:34:49.046Z,11.80
2018-11-13T02:37:16.207Z,10.77
2018-11-13T02:39:43.392Z,10.40
2018-11-13T02:42:10.527Z,9.90
2018-11-13T02:44:37.698Z,10.70
2018-11-13T02:47:04.962Z,10.87
2018-11-13T02:49:32.111Z,10.40
2018-11-13T02:51:59.257Z,10.50
2018-11-13T02:54:26.402Z,9.70
2018-11-13T02:56:53.562Z,10.30
2018-11-13T02:59:20.718Z,9.30
2018-11-13T03:01:47.857Z,8.57
2018-11-13T03:04:15.012Z,8.07
2018-11-13T03:06:42.151Z,8.47
2018-11-13T03:09:09.286Z,8.30
2018-11-13T03:11:36.715Z,8.40
2018-11-13T03:14:04.310Z,7.97
2018-11-13T03:16:31.456Z,7.87
2018-11-13T03:18:58.603Z,7.33
2018-11-13T03:21:25.761Z,7.50
2018-11-13T03:23:52.910Z,6.97
2018-11-13T03:26:20.078Z,7.03
2018-11-13T03:28:47.246Z,7.10
2018-11-13T03:31:14.482Z,7.33
2018-11-13T03:33:41.550Z,6.90
2018-11-13T03:36:08.697Z,6.60
2018-11-13T03:38:35.838Z,6.63
2018-11-13T03:41:03.023Z,6.40
2018-11-13T03:43:30.163Z,6.63
2018-11-13T03:45:57.300Z,6.80
2018-11-13T03:48:24.503Z,6.57
2018-11-13T03:50:51.637Z,6.67
2018-11-13T03:53:18.790Z,6.20
2018-11-13T03:55:45.974Z,6.07
2018-11-13T03:58:13.126Z,5.63
2018-11-13T04:00:40.261Z,6.00
2018-11-13T04:03:07.458Z,5.60
2018-11-13T04:05:34.610Z,6.40
2018-11-13T04:08:01.768Z,5.70
2018-11-13T04:10:28.914Z,5.33
2018-11-13T04:12:56.088Z,4.80
2018-11-13T04:15:24.910Z,5.20
2018-11-13T04:17:52.062Z,4.40
2018-11-13T04:20:20.353Z,4.90
2018-11-13T04:22:47.763Z,5.00
2018-11-13T04:25:14.945Z,4.40
2018-11-13T04:27:42.081Z,4.13
2018-11-13T04:30:09.800Z,4.60
2018-11-13T04:32:37.071Z,4.33
2018-11-13T04:35:04.790Z,4.27
2018-11-13T04:37:31.962Z,4.87
2018-11-13T04:39:59.159Z,4.60
2018-11-13T04:42:26.311Z,4.30
2018-11-13T04:44:53.788Z,4.40
2018-11-13T04:47:20.958Z,4.23
2018-11-13T04:49:48.132Z,3.97
2018-11-13T04:52:15.285Z,3.80
2018-11-13T04:54:42.474Z,3.90
2018-11-13T04:57:09.603Z,3.53
2018-11-13T04:59:36.742Z,3.80
2018-11-13T05:02:03.905Z,3.70
2018-11-13T05:04:31.039Z,3.90
2018-11-13T05:06:58.526Z,3.97
2018-11-13T05:09:25.727Z,4.20
2018-11-13T05:11:52.866Z,4.00
2018-11-13T05:14:20.046Z,4.03
2018-11-13T05:16:47.179Z,3.63
2018-11-13T05:19:14.322Z,3.73
2018-11-13T05:21:41.466Z,3.50
2018-11-13T05:24:08.646Z,3.70
2018-11-13T05:26:35.822Z,3.43
2018-11-13T05:29:02.966Z,3.80
2018-11-13T05:31:30.123Z,3.73
2018-11-13T05:33:57.279Z,3.40
2018-11-13T05:36:24.490Z,3.40
2018-11-13T05:38:51.657Z,3.60
2018-11-13T05:41:18.794Z,3.60
2018-11-13T05:43:46.022Z,3.33
2018-11-13T05:46:13.170Z,3.50
2018-11-13T05:48:40.303Z,3.60
2018-11-13T05:51:07.739Z,3.50
2018-11-13T05:53:34.939Z,3.30
2018-11-13T05:56:02.078Z,3.40
2018-11-13T05:58:29.234Z,3.70
2018-11-13T06:00:56.382Z,4.37
2018-11-13T06:03:23.522Z,4.93
2018-11-13T06:05:50.666Z,4.70
2018-11-13T06:08:18.369Z,4.30
2018-11-13T06:10:45.808Z,4.10
2018-11-13T06:13:13.066Z,3.70
2018-11-13T06:15:40.227Z,3.27
2018-11-13T06:18:07.399Z,3.20
2018-11-13T06:20:34.523Z,3.37
2018-11-13T06:23:01.804Z,3.63
2018-11-13T06:25:28.861Z,3.33
2018-11-13T06:27:56.075Z,3.33
2018-11-13T06:30:25.118Z,3.60
2018-11-13T06:32:52.471Z,4.00
2018-11-13T06:35:19.615Z,4.83
2018-11-13T06:37:46.766Z,4.90
2018-11-13T06:40:13.917Z,5.40
2018-11-13T06:42:41.325Z,4.33
2018-11-13T06:45:09.226Z,3.87
2018-11-13T06:47:36.462Z,3.90
2018-11-13T06:50:03.654Z,3.57
2018-11-13T06:52:30.805Z,3.67
2018-11-13T06:55:00.509Z,3.90
2018-11-13T06:57:27.858Z,3.67
2018-11-13T06:59:55.110Z,3.50
2018-11-13T07:02:22.565Z,4.17
2018-11-13T07:04:49.758Z,4.10
2018-11-13T07:07:16.907Z,4.23
2018-11-13T07:09:44.041Z,4.10
2018-11-13T07:12:11.210Z,4.20
2018-11-13T07:14:38.378Z,4.43
2018-11-13T07:17:05.567Z,4.30
2018-11-13T07:19:32.715Z,4.63
2018-11-13T07:21:59.866Z,5.00
2018-11-13T07:24:27.006Z,4.77
2018-11-13T07:26:54.221Z,4.50
2018-11-13T07:29:21.354Z,4.50
2018-11-13T07:31:48.495Z,4.43
2018-11-13T07:34:15.681Z,4.67
2018-11-13T07:36:42.794Z,5.03
2018-11-13T07:39:10.850Z,4.80
2018-11-13T07:41:37.996Z,4.50
2018-11-13T07:44:05.154Z,4.00
2018-11-13T07:46:32.306Z,4.57
2018-11-13T07:48:59.435Z,4.70
2018-11-13T07:51:26.606Z,4.37
2018-11-13T07:53:53.831Z,4.30
2018-11-13T07:56:20.909Z,4.30
2018-11-13T07:58:48.053Z,4.60
2018-11-13T08:01:15.242Z,3.87
2018-11-13T08:03:42.396Z,3.93
2018-11-13T08:06:09.531Z,3.80
2018-11-13T08:08:36.653Z,3.20
2018-11-13T08:11:04.642Z,3.57
2018-11-13T08:13:32.570Z,2.97
2018-11-13T08:15:59.701Z,3.30
2018-11-13T08:18:26.893Z,2.90
2018-11-13T08:20:54.007Z,3.10
2018-11-13T08:23:21.196Z,2.00
2018-11-13T08:25:48.350Z,2.17
2018-11-13T08:28:15.520Z,2.00
2018-11-13T08:30:42.638Z,2.10
2018-11-13T08:33:09.802Z,1.97
2018-11-13T08:35:37.163Z,1.93
2018-11-13T08:38:04.347Z,2.23
2018-11-13T08:40:31.483Z,1.90
2018-11-13T08:42:58.644Z,1.90
2018-11-13T08:45:25.783Z,2.00
2018-11-13T08:47:52.910Z,2.20
2018-11-13T08:50:20.134Z,1.83
2018-11-13T08:52:47.482Z,2.10
2018-11-13T08:55:14.807Z,1.83
2018-11-13T08:57:42.063Z,1.73
2018-11-13T09:00:10.335Z,1.73
2018-11-13T09:02:37.786Z,1.83
2018-11-13T09:05:05.493Z,2.03
2018-11-13T09:07:32.623Z,1.83
2018-11-13T09:09:59.778Z,1.80
2018-11-13T09:12:27.060Z,1.60
2018-11-13T09:14:54.126Z,1.73
2018-11-13T09:17:21.286Z,1.63
2018-11-13T09:19:48.495Z,1.50
2018-11-13T09:22:15.652Z,1.67
2018-11-13T09:24:42.871Z,1.53
2018-11-13T09:27:10.078Z,1.77
2018-11-13T09:29:37.222Z,1.80
2018-11-13T09:32:04.370Z,1.87
2018-11-13T09:34:31.514Z,1.70
2018-11-13T09:36:58.679Z,1.90
2018-11-13T09:39:25.919Z,1.70
2018-11-13T09:41:52.987Z,1.60
2018-11-13T09:44:20.130Z,1.80
2018-11-13T09:46:47.271Z,1.67
2018-11-13T09:49:14.421Z,1.90
2018-11-13T09:51:41.578Z,1.70
2018-11-13T09:54:08.718Z,1.90
2018-11-13T09:56:35.967Z,1.80
2018-11-13T09:59:03.105Z,1.70
2018-11-13T10:01:30.553Z,1.40
2018-11-13T10:03:58.117Z,1.80
2018-11-13T10:06:24.530Z,1.90
2018-11-13T10:08:51.662Z,2.30
2018-11-13T10:11:18.866Z,1.90
2018-11-13T10:13:46.038Z,2.20
2018-11-13T10:16:13.180Z,1.73
2018-11-13T10:18:40.330Z,1.63
2018-11-13T10:21:07.470Z,1.70
2018-11-13T10:23:34.602Z,1.87
2018-11-13T10:26:01.763Z,2.00
2018-11-13T10:28:28.905Z,1.60
2018-11-13T10:30:56.041Z,1.67
2018-11-13T10:33:23.250Z,1.70
2018-11-13T10:35:50.378Z,1.47
2018-11-13T10:38:17.522Z,1.43
2018-11-13T10:40:44.874Z,1.77
2018-11-13T10:43:11.827Z,1.70
2018-11-13T10:45:38.970Z,1.57
2018-11-13T10:48:06.155Z,1.47
2018-11-13T10:50:33.411Z,1.60
2018-11-13T10:53:00.554Z,1.60
2018-11-13T10:55:27.728Z,1.27
2018-11-13T10:57:54.866Z,1.57
2018-11-13T11:00:27.922Z,1.40
2018-11-13T11:03:00.639Z,1.73
2018-11-13T11:05:28.314Z,1.60
2018-11-13T11:07:55.821Z,1.50
2018-11-13T11:10:22.966Z,1.60
2018-11-13T11:12:50.173Z,1.50
2018-11-13T11:15:17.730Z,1.43
2018-11-13T11:17:44.875Z,1.90
2018-11-13T11:20:12.758Z,1.40
2018-11-13T11:22:39.933Z,1.30
2018-11-13T11:25:07.731Z,1.47
2018-11-13T11:27:34.835Z,1.40
2018-11-13T11:30:01.978Z,1.53
2018-11-13T11:32:29.139Z,1.80
2018-11-13T11:34:56.310Z,1.20
2018-11-13T11:37:23.470Z,1.60
2018-11-13T11:39:50.597Z,1.40
2018-11-13T11:42:17.775Z,1.37
2018-11-13T11:44:46.166Z,1.70
2018-11-13T11:47:13.311Z,1.80
2018-11-13T11:49:40.482Z,1.40
2018-11-13T11:52:07.671Z,1.80
2018-11-13T11:54:34.806Z,1.20
2018-11-13T11:57:01.972Z,1.30
2018-11-13T11:59:29.262Z,2.17
2018-11-13T12:01:56.394Z,1.40
2018-11-13T12:04:23.581Z,1.20
2018-11-13T12:06:50.718Z,1.30
2018-11-13T12:09:17.858Z,1.50
2018-11-13T12:11:45.043Z,1.50
2018-11-13T12:14:12.178Z,1.30
2018-11-13T12:16:39.328Z,1.70
2018-11-13T12:19:07.269Z,1.87
2018-11-13T12:21:34.298Z,1.70
2018-11-13T12:24:01.554Z,1.67
2018-11-13T12:26:28.722Z,1.57
2018-11-13T12:28:55.859Z,1.40
2018-11-13T12:31:23.135Z,1.57
2018-11-13T12:33:50.354Z,1.43
2018-11-13T12:36:17.494Z,1.67
2018-11-13T12:38:44.646Z,1.60
2018-11-13T12:41:11.819Z,1.77
2018-11-13T12:43:38.953Z,1.40
2018-11-13T12:46:06.190Z,1.40
2018-11-13T12:48:33.527Z,1.80
2018-11-13T12:51:04.699Z,1.53
2018-11-13T12:53:32.107Z,1.60
2018-11-13T12:56:00.567Z,1.50
2018-11-13T12:58:26.430Z,1.50
2018-11-13T13:00:53.619Z,1.30
2018-11-13T13:03:20.729Z,1.40
2018-11-13T13:05:47.881Z,1.50
2018-11-13T13:08:15.026Z,1.50
2018-11-13T13:10:42.188Z,1.30
2018-11-13T13:13:09.323Z,1.60
2018-11-13T13:15:36.461Z,1.37
2018-11-13T13:18:03.738Z,1.80
2018-11-13T13:20:30.874Z,1.60
2018-11-13T13:22:58.023Z,1.70
2018-11-13T13:25:25.194Z,1.50
2018-11-13T13:27:52.359Z,1.57
2018-11-13T13:30:21.670Z,1.60
2018-11-13T13:32:49.203Z,1.80
2018-11-13T13:35:50.768Z,1.90
2018-11-13T13:38:17.950Z,1.70
2018-11-13T13:40:46.133Z,1.50
2018-11-13T13:43:13.903Z,1.67
2018-11-13T13:45:41.752Z,1.30
2018-11-13T13:48:08.900Z,1.40
2018-11-13T13:50:36.323Z,1.80
2018-11-13T13:53:03.528Z,1.40
2018-11-13T13:55:30.663Z,1.37
2018-11-13T13:57:57.791Z,1.23
2018-11-13T14:00:25.124Z,1.50
2018-11-13T14:02:52.116Z,1.40
2018-11-13T14:05:19.954Z,1.63
2018-11-13T14:07:47.130Z,1.30
2018-11-13T14:10:14.295Z,1.57
2018-11-13T14:12:41.430Z,1.80
2018-11-13T14:15:09.970Z,1.60
2018-11-13T14:17:37.074Z,1.57
2018-11-13T14:20:05.362Z,1.20
2018-11-13T14:22:32.515Z,1.50
2018-11-13T14:24:59.646Z,1.40
2018-11-13T14:27:26.808Z,1.57
2018-11-13T14:29:53.964Z,1.70
2018-11-13T14:32:21.106Z,1.50
2018-11-13T14:34:48.238Z,1.40
2018-11-13T14:37:15.418Z,1.60
2018-11-13T14:39:42.577Z,1.50
2018-11-13T14:42:09.710Z,1.57
2018-11-13T14:44:36.866Z,1.47
2018-11-13T14:47:04.003Z,1.60
2018-11-13T14:49:31.143Z,1.60
2018-11-13T14:51:58.309Z,1.50
2018-11-13T14:54:25.450Z,1.53
2018-11-13T14:56:52.578Z,1.90
2018-11-13T14:59:19.739Z,2.90
2018-11-13T15:01:46.936Z,1.67
2018-11-13T15:04:14.022Z,1.60
2018-11-13T15:06:41.187Z,1.20
2018-11-13T15:09:08.334Z,1.80
2018-11-13T15:11:35.486Z,2.00
2018-11-13T15:14:02.737Z,1.70
2018-11-13T15:16:29.878Z,1.53
2018-11-13T15:18:57.031Z,1.40
2018-11-13T15:21:24.182Z,1.40
2018-11-13T15:23:51.319Z,1.50
2018-11-13T15:26:18.475Z,1.50
2018-11-13T15:28:45.638Z,1.60
2018-11-13T15:31:12.784Z,1.53
2018-11-13T15:33:39.934Z,1.50
2018-11-13T15:36:07.102Z,2.17
2018-11-13T15:38:34.230Z,1.70
2018-11-13T15:41:01.354Z,1.30
2018-11-13T15:43:28.521Z,1.70
2018-11-13T15:45:55.881Z,1.70
2018-11-13T15:48:23.018Z,1.40
2018-11-13T15:50:50.170Z,1.67
2018-11-13T15:53:17.316Z,1.50
2018-11-13T15:55:44.467Z,1.70
2018-11-13T15:58:11.659Z,1.80
2018-11-13T16:00:40.060Z,1.53
2018-11-13T16:03:09.960Z,1.73
2018-11-13T16:05:38.842Z,1.60
2018-11-13T16:08:06.738Z,1.50
2018-11-13T16:10:33.902Z,1.57
2018-11-13T16:13:01.424Z,1.50
2018-11-13T16:15:29.118Z,1.63
2018-11-13T16:17:57.317Z,1.43
2018-11-13T16:20:24.869Z,1.67
2018-11-13T16:22:52.011Z,1.63
2018-11-13T16:25:19.162Z,1.67
2018-11-13T16:27:46.347Z,1.70
2018-11-13T16:30:14.835Z,1.60
2018-11-13T16:32:42.883Z,1.90
2018-11-13T16:35:11.214Z,2.10
2018-11-13T16:37:39.387Z,1.70
2018-11-13T16:40:07.407Z,1.57
2018-11-13T16:42:34.586Z,2.03
2018-11-13T16:45:01.743Z,1.70
2018-11-13T16:47:28.879Z,1.67
2018-11-13T16:49:56.023Z,2.43
2018-11-13T16:52:23.155Z,2.30
2018-11-13T16:54:51.234Z,2.50
2018-11-13T16:57:19.238Z,2.47
2018-11-13T16:59:46.982Z,2.40
2018-11-13T17:02:14.346Z,2.40
2018-11-13T17:04:41.530Z,2.37
2018-11-13T17:07:08.769Z,2.40
2018-11-13T17:09:35.939Z,2.20
2018-11-13T17:12:03.495Z,2.53
2018-11-13T17:14:30.645Z,1.80
2018-11-13T17:16:57.746Z,2.70
2018-11-13T17:22:16.044Z,2.77
2018-11-13T17:24:43.288Z,2.90
2018-11-13T17:27:10.551Z,2.77
2018-11-13T17:32:25.196Z,2.40
2018-11-13T17:34:52.852Z,2.57
2018-11-13T17:37:27.547Z,2.87
2018-11-13T17:41:29.214Z,2.50
2018-11-13T17:43:56.455Z,2.60
2018-11-13T17:46:23.616Z,2.80
2018-11-13T17:48:50.795Z,2.80
2018-11-13T17:51:17.962Z,2.23
2018-11-13T17:53:45.198Z,2.60
2018-11-13T17:56:12.422Z,2.87
2018-11-13T17:58:39.657Z,3.20
2018-11-13T18:01:06.935Z,3.27
2018-11-13T18:03:34.153Z,3.13
2018-11-13T18:06:01.347Z,2.77
2018-11-13T18:08:28.523Z,2.57
2018-11-13T18:10:55.795Z,2.60
2018-11-13T18:13:22.964Z,2.73
2018-11-13T18:15:50.138Z,2.57
2018-11-13T18:18:17.339Z,2.50
2018-11-13T18:20:44.532Z,2.60
2018-11-13T18:23:11.748Z,2.10
2018-11-13T18:25:38.926Z,2.17
2018-11-13T18:28:06.323Z,2.40
2018-11-13T18:30:34.822Z,2.27
2018-11-13T18:33:02.827Z,2.30
2018-11-13T18:35:31.280Z,2.70
2018-11-13T18:37:59.329Z,2.70
2018-11-13T18:40:26.797Z,2.10
2018-11-13T18:42:54.406Z,2.60
2018-11-13T18:45:23.367Z,2.40
2018-11-13T18:47:50.596Z,2.83
2018-11-13T18:50:20.088Z,2.77
2018-11-13T18:52:47.295Z,2.93
2018-11-13T18:55:14.850Z,3.03
2018-11-13T18:57:42.451Z,3.40
2018-11-13T19:00:10.466Z,2.70
2018-11-13T19:02:37.698Z,2.70
2018-11-13T19:05:04.919Z,2.80
2018-11-13T19:07:32.131Z,2.73
2018-11-13T19:09:59.404Z,3.00
2018-11-13T19:12:26.685Z,3.03
2018-11-13T19:14:54.105Z,2.73
2018-11-13T19:17:21.411Z,2.50
2018-11-13T19:19:48.611Z,2.90
2018-11-13T19:22:15.689Z,2.67
2018-11-13T19:24:42.998Z,2.60
2018-11-13T19:27:10.195Z,2.73
2018-11-13T19:29:37.397Z,2.90
2018-11-13T19:32:04.582Z,2.80
2018-11-13T19:34:31.778Z,2.27
2018-11-13T19:36:58.951Z,2.13
2018-11-13T19:39:26.128Z,2.20
2018-11-13T19:41:53.295Z,2.27
2018-11-13T19:44:20.495Z,2.40
2018-11-13T19:46:47.639Z,2.00
2018-11-13T19:49:14.853Z,2.10
2018-11-13T19:51:42.046Z,2.20
2018-11-13T19:54:09.204Z,2.57
2018-11-13T19:56:36.427Z,2.10
2018-11-13T19:59:03.640Z,2.60
2018-11-13T20:01:30.852Z,2.63
2018-11-13T20:03:58.116Z,2.73
2018-11-13T20:06:25.243Z,2.43
2018-11-13T20:08:52.435Z,3.03
2018-11-13T20:11:19.599Z,3.13
2018-11-13T20:13:46.773Z,3.60
2018-11-13T20:16:13.968Z,2.83
2018-11-13T20:18:41.136Z,3.10
2018-11-13T20:21:08.302Z,2.70
2018-11-13T20:23:35.539Z,3.20
2018-11-13T20:26:02.783Z,3.27
2018-11-13T20:28:30.089Z,3.53
2018-11-13T20:30:57.388Z,3.10
2018-11-13T20:33:24.543Z,2.90
2018-11-13T20:35:51.763Z,3.00
2018-11-13T20:38:19.015Z,2.90
2018-11-13T20:40:46.263Z,2.80
2018-11-13T20:43:13.514Z,3.00
2018-11-13T20:45:40.687Z,2.73
2018-11-13T20:48:07.956Z,2.93
2018-11-13T20:50:35.290Z,2.80
2018-11-13T20:53:02.511Z,3.30
2018-11-13T20:55:29.698Z,3.17
2018-11-13T20:57:56.906Z,2.83
2018-11-13T21:00:31.194Z,2.80
2018-11-13T21:02:58.506Z,2.93
2018-11-13T21:05:25.677Z,2.60
2018-11-13T21:07:52.950Z,3.30
2018-11-13T21:10:21.315Z,3.47
2018-11-13T21:12:48.870Z,2.80
2018-11-13T21:15:17.452Z,2.87
2018-11-13T21:17:44.639Z,2.80
2018-11-13T21:20:13.224Z,2.90
2018-11-13T21:22:40.610Z,2.90
2018-11-13T21:25:09.046Z,2.67
2018-11-13T21:27:36.362Z,3.17
2018-11-13T21:30:04.364Z,2.77
2018-11-13T21:32:31.439Z,3.00
2018-11-13T21:34:58.718Z,3.00
2018-11-13T21:37:26.534Z,3.13
2018-11-13T21:39:53.695Z,3.20
2018-11-13T21:42:21.002Z,3.33
2018-11-13T21:44:48.218Z,3.13
2018-11-13T21:47:15.404Z,3.10
2018-11-13T21:49:42.572Z,3.37
2018-11-13T21:52:09.750Z,3.37
2018-11-13T21:54:36.919Z,3.80
2018-11-13T21:57:04.155Z,3.13
2018-11-13T21:59:31.358Z,3.23
2018-11-13T22:01:58.562Z,3.10
2018-11-13T22:04:25.744Z,2.77
2018-11-13T22:06:52.966Z,2.77
2018-11-13T22:09:20.186Z,2.80
2018-11-13T22:11:47.345Z,3.30
2018-11-13T22:14:14.542Z,3.30
2018-11-13T22:16:42.400Z,3.30
2018-11-13T22:19:09.239Z,3.20
2018-11-13T22:21:36.430Z,3.50
2018-11-13T22:24:03.790Z,3.50
2018-11-13T22:26:30.996Z,3.90
2018-11-13T22:28:58.540Z,3.20
2018-11-13T22:31:25.471Z,3.10
2018-11-13T22:33:52.639Z,4.43
2018-11-13T22:36:19.919Z,3.53
2018-11-13T22:38:47.085Z,3.30
2018-11-13T22:41:14.260Z,3.20
2018-11-13T22:43:41.387Z,3.40
2018-11-13T22:46:08.563Z,3.60
2018-11-13T22:48:35.738Z,3.13
2018-11-13T22:51:02.931Z,3.60
2018-11-13T22:53:30.178Z,3.43
2018-11-13T22:55:57.340Z,3.50
2018-11-13T22:58:24.560Z,3.60
2018-11-13T23:00:51.742Z,3.10
2018-11-13T23:03:19.565Z,3.57
2018-11-13T23:05:47.567Z,3.40
2018-11-13T23:08:16.020Z,3.20
2018-11-13T23:10:43.182Z,3.43
2018-11-13T23:13:10.403Z,3.40
2018-11-13T23:15:37.595Z,3.33
2018-11-13T23:18:04.983Z,3.37
2018-11-13T23:20:32.166Z,3.30
2018-11-13T23:22:59.341Z,3.73
2018-11-13T23:25:26.531Z,3.20
2018-11-13T23:27:53.823Z,3.43
2018-11-13T23:30:22.114Z,3.60
2018-11-13T23:32:49.492Z,3.10
2018-11-13T23:35:16.911Z,3.20
2018-11-13T23:37:45.153Z,3.63
2018-11-13T23:40:13.739Z,3.37
2018-11-13T23:42:40.708Z,3.20
2018-11-13T23:45:08.093Z,3.40
2018-11-13T23:47:35.292Z,3.70
2018-11-13T23:50:02.612Z,3.13
2018-11-13T23:52:29.923Z,3.47
2018-11-13T23:54:57.114Z,3.23
2018-11-13T23:57:24.302Z,3.20
2018-11-13T23:59:51.480Z,3.80
